LHBC 161245Z 22009KT CAVOK 28/13 Q1016        

LHBP 161330Z 29011KT 250V330 CAVOK 27/14 Q1016 NOSIG        

LHDC 161315Z AUTO 26010KT 200V300 CAVOK 27/12 Q1015 NOSIG        

LHKE 161315Z 30012KT 260V330 CAVOK 28/13 Q1016 NOSIG RMK BLU        

LHPA 161315Z 34004KT 9999 SCT040 27/16 Q1017 NOSIG RMK BLU        

LHPP 161315Z 22006KT CAVOK 29/12 Q1017        

LHPR 161315Z 29008KT 250V330 9999 FEW046 SCT200 26/15 Q1017        

LHSM 161315Z AUTO 19006KT 120V270 CAVOK 28/18 Q1017 NOSIG        

LHSN 161315Z 27006KT 200V350 CAVOK 28/13 Q1015 NOSIG RMK BLU